createdAt,value
2018-12-02T00:02:13.391Z,22.77
2018-12-02T00:04:47.604Z,21.90
2018-12-02T00:07:26.720Z,23.47
2018-12-02T00:10:04.629Z,23.07
2018-12-02T00:12:42.204Z,21.10
2018-12-02T00:15:25.825Z,22.87
2018-12-02T00:18:08.463Z,22.62
2018-12-02T00:20:47.808Z,22.65
2018-12-02T00:23:27.019Z,21.33
2018-12-02T00:26:05.907Z,21.37
2018-12-02T00:28:46.992Z,16.82
2018-12-02T00:31:26.065Z,20.97
2018-12-02T00:34:05.709Z,22.20
2018-12-02T00:36:44.629Z,19.50
2018-12-02T00:39:23.869Z,19.07
2018-12-02T00:42:04.630Z,17.45
2018-12-02T00:44:43.725Z,17.20
2018-12-02T00:47:23.441Z,18.65
2018-12-02T00:50:03.632Z,18.70
2018-12-02T00:52:42.857Z,18.67
2018-12-02T00:55:26.340Z,17.85
2018-12-02T00:58:05.407Z,18.67
2018-12-02T01:00:42.520Z,20.37
2018-12-02T01:03:23.562Z,21.12
2018-12-02T01:06:04.432Z,22.15
2018-12-02T01:08:44.629Z,20.82
2018-12-02T01:11:23.461Z,20.68
2018-12-02T01:14:02.954Z,17.77
2018-12-02T01:16:41.674Z,16.17
2018-12-02T01:19:22.134Z,19.70
2018-12-02T01:22:02.826Z,20.57
2018-12-02T01:24:41.192Z,19.45
2018-12-02T01:27:21.791Z,20.12
2018-12-02T01:30:01.051Z,18.80
2018-12-02T01:32:36.739Z,20.10
2018-12-02T01:35:14.631Z,19.55
2018-12-02T01:37:50.749Z,20.40
2018-12-02T01:40:30.789Z,19.65
2018-12-02T01:43:10.557Z,20.72
2018-12-02T01:45:51.175Z,20.68
2018-12-02T01:48:33.088Z,21.33
2018-12-02T01:51:14.628Z,20.82
2018-12-02T01:53:54.597Z,20.37
2018-12-02T01:56:33.441Z,20.92
2018-12-02T01:59:12.929Z,19.95
2018-12-02T02:01:52.169Z,22.87
2018-12-02T02:04:34.630Z,19.45
2018-12-02T02:07:14.430Z,20.20
2018-12-02T02:09:53.922Z,17.27
2018-12-02T02:12:34.410Z,19.15
2018-12-02T02:15:14.001Z,20.43
2018-12-02T02:17:54.627Z,18.50
2018-12-02T02:20:33.487Z,19.20
2018-12-02T02:23:13.228Z,20.55
2018-12-02T02:25:52.167Z,17.12
2018-12-02T02:28:32.009Z,20.23
2018-12-02T02:31:11.527Z,20.15
2018-12-02T02:33:51.141Z,19.67
2018-12-02T02:36:30.758Z,19.32
2018-12-02T02:39:10.425Z,19.10
2018-12-02T02:41:54.627Z,18.32
2018-12-02T02:44:34.458Z,18.30
2018-12-02T02:47:14.124Z,17.85
2018-12-02T02:49:54.613Z,18.45
2018-12-02T02:52:33.655Z,17.30
2018-12-02T02:55:13.125Z,17.57
2018-12-02T02:57:52.614Z,16.35
2018-12-02T03:00:31.654Z,16.82
2018-12-02T03:03:11.969Z,16.00
2018-12-02T03:05:51.391Z,15.53
2018-12-02T03:08:30.401Z,17.52
2018-12-02T03:11:10.842Z,16.10
2018-12-02T03:13:49.033Z,12.68
2018-12-02T03:16:28.904Z,16.35
2018-12-02T03:19:09.293Z,14.58
2018-12-02T03:21:47.671Z,15.13
2018-12-02T03:24:27.256Z,15.50
2018-12-02T03:27:05.265Z,12.05
2018-12-02T03:29:43.984Z,14.47
2018-12-02T03:32:18.323Z,13.62
2018-12-02T03:34:57.639Z,14.75
2018-12-02T03:37:34.605Z,13.60
2018-12-02T03:40:17.096Z,13.62
2018-12-02T03:42:57.290Z,13.60
2018-12-02T03:45:36.818Z,13.00
2018-12-02T03:48:16.524Z,14.15
2018-12-02T03:50:55.566Z,11.05
2018-12-02T03:53:35.703Z,12.88
2018-12-02T03:56:15.762Z,14.18
2018-12-02T03:58:54.627Z,12.47
2018-12-02T04:01:33.930Z,11.65
2018-12-02T04:04:14.628Z,12.82
2018-12-02T04:06:54.625Z,12.00
2018-12-02T04:09:34.626Z,11.73
2018-12-02T04:12:12.967Z,12.18
2018-12-02T04:14:51.915Z,11.05
2018-12-02T04:17:30.199Z,12.65
2018-12-02T04:20:06.744Z,12.03
2018-12-02T04:22:44.632Z,11.30
2018-12-02T04:25:24.627Z,12.40
2018-12-02T04:28:04.627Z,12.18
2018-12-02T04:30:43.161Z,10.88
2018-12-02T04:33:17.823Z,11.18
2018-12-02T04:35:52.317Z,11.25
2018-12-02T04:38:32.084Z,11.83
2018-12-02T04:41:11.627Z,10.70
2018-12-02T04:43:50.714Z,11.53
2018-12-02T04:46:29.708Z,11.88
2018-12-02T04:49:02.158Z,11.70
2018-12-02T04:51:33.028Z,11.65
2018-12-02T04:54:02.110Z,10.82
2018-12-02T04:56:34.332Z,11.08
2018-12-02T04:59:01.701Z,10.75
2018-12-02T05:01:30.098Z,11.75
2018-12-02T05:03:57.864Z,10.68
2018-12-02T05:06:25.793Z,11.65
2018-12-02T05:08:54.012Z,10.53
2018-12-02T05:11:22.737Z,10.80
2018-12-02T05:13:54.628Z,10.63
2018-12-02T05:16:22.473Z,11.20
2018-12-02T05:18:51.764Z,10.00
2018-12-02T05:21:20.197Z,10.82
2018-12-02T05:23:49.510Z,10.98
2018-12-02T05:26:17.618Z,10.85
2018-12-02T05:28:45.865Z,11.25
2018-12-02T05:31:15.822Z,11.20
2018-12-02T05:33:45.375Z,10.30
2018-12-02T05:36:14.762Z,11.22
2018-12-02T05:38:52.234Z,11.78
2018-12-02T05:41:21.776Z,12.25
2018-12-02T05:43:52.045Z,12.10
2018-12-02T05:46:20.119Z,11.75
2018-12-02T05:48:52.982Z,11.78
2018-12-02T05:51:22.828Z,12.07
2018-12-02T05:53:51.794Z,10.75
2018-12-02T05:56:21.333Z,11.55
2018-12-02T05:58:53.192Z,11.73
2018-12-02T06:01:22.192Z,11.45
2018-12-02T06:03:51.844Z,9.50
2018-12-02T06:06:21.552Z,12.28
2018-12-02T06:08:50.505Z,12.58
2018-12-02T06:11:21.443Z,12.20
2018-12-02T06:13:52.854Z,11.97
2018-12-02T06:16:34.409Z,13.98
2018-12-02T06:19:11.922Z,14.23
2018-12-02T06:21:46.795Z,14.05
2018-12-02T06:24:17.717Z,13.25
2018-12-02T06:26:52.072Z,13.85
2018-12-02T06:29:21.956Z,15.60
2018-12-02T06:31:57.692Z,15.18
2018-12-02T06:34:29.395Z,13.98
2018-12-02T06:37:01.141Z,13.20
2018-12-02T06:39:31.622Z,14.03
2018-12-02T06:42:01.780Z,14.55
2018-12-02T06:44:32.669Z,14.15
2018-12-02T06:47:01.095Z,14.00
2018-12-02T06:49:30.752Z,14.38
2018-12-02T06:52:00.889Z,13.48
2018-12-02T06:54:35.914Z,15.00
2018-12-02T06:57:10.773Z,13.55
2018-12-02T06:59:47.192Z,14.40
2018-12-02T07:02:32.384Z,14.23
2018-12-02T07:05:11.898Z,15.10
2018-12-02T07:07:51.219Z,13.88
2018-12-02T07:10:30.456Z,14.10
2018-12-02T07:13:10.998Z,14.47
2018-12-02T07:15:49.655Z,13.35
2018-12-02T07:18:36.981Z,13.48
2018-12-02T07:21:18.996Z,13.70
2018-12-02T07:24:02.268Z,14.20
2018-12-02T07:26:46.953Z,15.43
2018-12-02T07:29:28.097Z,12.98
2018-12-02T07:34:46.229Z,15.18
2018-12-02T08:24:04.529Z,14.23
2018-12-02T08:26:44.471Z,14.10
2018-12-02T08:29:23.912Z,14.83
2018-12-02T08:32:04.638Z,15.15
2018-12-02T08:34:43.464Z,12.65
2018-12-02T08:37:22.984Z,13.95
2018-12-02T08:40:01.672Z,13.30
2018-12-02T08:42:41.839Z,10.35
2018-12-02T08:45:21.985Z,11.25
2018-12-02T08:48:01.574Z,9.90
2018-12-02T08:50:41.890Z,10.60
2018-12-02T08:53:21.983Z,11.28
2018-12-02T08:56:00.336Z,10.85
2018-12-02T08:58:41.485Z,10.32
2018-12-02T09:01:20.579Z,11.73
2018-12-02T09:04:01.119Z,11.22
2018-12-02T09:06:39.588Z,11.38
2018-12-02T09:09:21.175Z,12.13
2018-12-02T09:11:59.919Z,11.60
2018-12-02T09:14:38.810Z,10.80
2018-12-02T09:17:19.303Z,10.30
2018-12-02T09:19:59.667Z,10.82
2018-12-02T09:22:39.183Z,10.05
2018-12-02T09:25:17.653Z,12.05
2018-12-02T09:27:58.564Z,7.15
2018-12-02T09:30:38.609Z,13.38
2018-12-02T09:33:20.180Z,6.78
2018-12-02T09:35:59.492Z,7.12
2018-12-02T09:38:37.805Z,7.85
2018-12-02T09:41:16.249Z,6.92
2018-12-02T09:43:55.964Z,6.37
2018-12-02T09:46:33.881Z,6.85
2018-12-02T09:49:13.501Z,7.00
2018-12-02T09:51:53.164Z,6.25
2018-12-02T09:54:34.638Z,6.30
2018-12-02T09:57:05.836Z,5.83
2018-12-02T09:59:45.864Z,5.45
2018-12-02T10:02:24.636Z,6.10
2018-12-02T10:05:04.636Z,5.87
2018-12-02T10:07:44.514Z,5.92
2018-12-02T10:10:22.458Z,7.30
2018-12-02T10:13:06.797Z,5.97
2018-12-02T10:15:44.638Z,6.62
2018-12-02T10:18:24.637Z,5.92
2018-12-02T10:21:04.128Z,7.15
2018-12-02T10:23:44.186Z,6.25
2018-12-02T10:26:23.941Z,5.45
2018-12-02T10:29:04.637Z,6.62
2018-12-02T10:31:43.413Z,7.80
2018-12-02T10:34:24.636Z,6.30
2018-12-02T10:37:03.045Z,5.95
2018-12-02T10:39:43.761Z,6.60
2018-12-02T10:42:22.154Z,6.62
2018-12-02T10:45:02.692Z,6.65
2018-12-02T10:47:41.033Z,9.53
2018-12-02T10:50:22.688Z,6.28
2018-12-02T10:53:01.296Z,9.58
2018-12-02T10:55:45.783Z,6.70
2018-12-02T10:58:30.251Z,6.45
2018-12-02T11:01:14.342Z,6.80
2018-12-02T11:03:53.137Z,7.55
2018-12-02T11:06:37.596Z,7.67
2018-12-02T11:09:21.389Z,7.00
2018-12-02T11:12:00.657Z,6.45
2018-12-02T11:14:39.618Z,7.40
2018-12-02T11:17:12.989Z,5.87
2018-12-02T11:19:53.059Z,6.60
2018-12-02T11:22:33.042Z,7.12
2018-12-02T11:25:12.014Z,7.30
2018-12-02T11:27:50.626Z,8.50
2018-12-02T11:30:29.491Z,7.72
2018-12-02T11:33:08.649Z,7.45
2018-12-02T11:35:48.608Z,7.60
2018-12-02T11:38:27.843Z,6.65
2018-12-02T11:41:01.987Z,6.75
2018-12-02T11:43:43.278Z,6.55
2018-12-02T11:46:15.761Z,12.68
2018-12-02T11:48:47.792Z,7.00
2018-12-02T11:51:15.988Z,9.65
2018-12-02T11:53:44.306Z,8.35
2018-12-02T11:56:12.531Z,10.53
2018-12-02T11:58:41.385Z,14.80
2018-12-02T12:01:11.375Z,8.35
2018-12-02T12:03:40.137Z,9.23
2018-12-02T12:06:13.077Z,8.65
2018-12-02T12:08:45.297Z,8.30
2018-12-02T12:11:25.484Z,8.05
2018-12-02T12:14:04.636Z,6.70
2018-12-02T12:16:44.624Z,9.45
2018-12-02T12:19:22.514Z,6.95
2018-12-02T12:22:03.076Z,13.90
2018-12-02T12:24:42.617Z,6.92
2018-12-02T12:27:22.107Z,6.72
2018-12-02T12:30:00.274Z,8.53
2018-12-02T12:32:41.428Z,9.68
2018-12-02T12:35:22.085Z,10.28
2018-12-02T12:38:02.948Z,6.45
2018-12-02T12:40:42.188Z,6.55
2018-12-02T12:43:35.537Z,6.92
2018-12-02T12:46:13.372Z,6.55
2018-12-02T12:48:53.121Z,7.30
2018-12-02T12:51:32.656Z,7.28
2018-12-02T12:54:13.597Z,8.15
2018-12-02T12:56:54.089Z,6.95
2018-12-02T12:59:34.561Z,7.83
2018-12-02T13:02:12.521Z,7.42
2018-12-02T13:04:52.062Z,7.42
2018-12-02T13:07:30.779Z,10.43
2018-12-02T13:10:10.844Z,7.90
2018-12-02T13:12:49.791Z,7.70
2018-12-02T13:15:30.805Z,8.53
2018-12-02T13:18:09.795Z,7.25
2018-12-02T13:20:46.890Z,8.60
2018-12-02T13:23:26.004Z,8.35
2018-12-02T13:26:04.630Z,9.15
2018-12-02T13:28:42.739Z,7.17
2018-12-02T13:31:22.154Z,8.65
2018-12-02T13:34:02.826Z,7.85
2018-12-02T13:36:43.910Z,10.23
2018-12-02T13:39:23.404Z,8.75
2018-12-02T13:42:02.141Z,10.82
2018-12-02T13:44:41.161Z,7.33
2018-12-02T13:47:20.777Z,10.18
2018-12-02T13:50:00.245Z,8.40
2018-12-02T13:52:40.527Z,7.55
2018-12-02T13:55:21.999Z,15.98
2018-12-02T13:58:01.039Z,10.30
2018-12-02T14:00:41.081Z,10.45
2018-12-02T14:03:21.601Z,7.10
2018-12-02T14:06:01.446Z,7.10
2018-12-02T14:08:40.381Z,7.92
2018-12-02T14:11:20.823Z,7.40
2018-12-02T14:13:59.316Z,7.80
2018-12-02T14:16:45.530Z,6.28
2018-12-02T14:19:24.637Z,7.10
2018-12-02T14:22:04.516Z,6.33
2018-12-02T14:24:47.707Z,6.50
2018-12-02T14:27:28.224Z,6.20
2018-12-02T14:30:07.387Z,6.67
2018-12-02T14:32:46.854Z,7.05
2018-12-02T14:35:24.637Z,7.40
2018-12-02T14:38:04.337Z,6.85
2018-12-02T14:40:42.827Z,7.37
2018-12-02T14:43:24.637Z,8.25
2018-12-02T14:46:04.639Z,7.67
2018-12-02T14:48:44.084Z,6.67
2018-12-02T14:51:27.100Z,6.67
2018-12-02T14:54:08.913Z,8.50
2018-12-02T14:56:47.174Z,8.53
2018-12-02T14:59:25.817Z,6.92
2018-12-02T15:02:03.770Z,8.45
2018-12-02T15:04:43.588Z,7.85
2018-12-02T15:07:22.074Z,8.55
2018-12-02T15:10:01.109Z,8.83
2018-12-02T15:12:42.226Z,8.40
2018-12-02T15:15:22.341Z,14.05
2018-12-02T15:17:59.224Z,5.92
2018-12-02T15:20:38.498Z,5.03
2018-12-02T15:23:17.444Z,3.72
2018-12-02T15:25:58.286Z,3.40
2018-12-02T15:28:36.584Z,3.45
2018-12-02T15:31:14.643Z,3.10
2018-12-02T15:33:54.584Z,3.20
2018-12-02T15:36:33.876Z,2.90
2018-12-02T15:39:13.426Z,2.90
2018-12-02T15:41:51.534Z,2.92
2018-12-02T15:44:33.180Z,3.10
2018-12-02T15:47:13.317Z,3.00
2018-12-02T15:49:52.806Z,3.00
2018-12-02T15:52:32.775Z,2.90
2018-12-02T15:55:13.755Z,3.20
2018-12-02T15:57:52.935Z,2.70
2018-12-02T16:00:32.722Z,3.22
2018-12-02T16:03:12.165Z,3.17
2018-12-02T16:05:53.456Z,3.52
2018-12-02T16:08:34.371Z,5.50
2018-12-02T16:11:13.911Z,3.15
2018-12-02T16:13:57.330Z,3.40
2018-12-02T16:16:36.012Z,4.28
2018-12-02T16:19:15.685Z,3.75
2018-12-02T16:21:52.422Z,17.48
2018-12-02T16:24:33.208Z,3.75
2018-12-02T16:27:08.312Z,3.95
2018-12-02T16:29:42.203Z,9.40
2018-12-02T16:32:19.351Z,4.12
2018-12-02T16:35:00.692Z,3.60
2018-12-02T16:37:40.677Z,3.45
2018-12-02T16:40:19.446Z,5.15
2018-12-02T16:42:58.860Z,3.90
2018-12-02T16:45:38.255Z,3.95
2018-12-02T16:48:17.795Z,6.10
2018-12-02T16:50:57.507Z,3.52
2018-12-02T16:53:38.575Z,3.33
2018-12-02T16:56:20.892Z,3.15
2018-12-02T16:59:03.560Z,2.70
2018-12-02T17:01:43.860Z,2.80
2018-12-02T17:04:23.518Z,3.87
2018-12-02T17:07:04.638Z,3.40
2018-12-02T17:09:44.225Z,2.85
2018-12-02T17:12:23.868Z,3.33
2018-12-02T17:15:03.781Z,3.55
2018-12-02T17:17:41.047Z,3.52
2018-12-02T17:20:21.438Z,3.08
2018-12-02T17:23:01.209Z,4.33
2018-12-02T17:25:39.845Z,4.80
2018-12-02T17:28:19.417Z,3.40
2018-12-02T17:31:02.559Z,4.50
2018-12-02T17:33:42.095Z,3.83
2018-12-02T17:36:12.047Z,3.40
2018-12-02T17:38:46.847Z,4.95
2018-12-02T17:41:26.946Z,4.70
2018-12-02T17:43:54.978Z,5.17
2018-12-02T17:46:34.405Z,4.15
2018-12-02T17:49:13.950Z,5.05
2018-12-02T17:51:54.634Z,6.30
2018-12-02T17:54:34.106Z,5.92
2018-12-02T17:57:14.084Z,6.15
2018-12-02T17:59:54.187Z,5.40
2018-12-02T18:02:36.328Z,5.33
2018-12-02T18:05:15.421Z,6.30
2018-12-02T18:07:54.636Z,5.22
2018-12-02T18:10:32.652Z,5.00
2018-12-02T18:13:12.297Z,4.20
2018-12-02T18:15:52.537Z,3.75
2018-12-02T18:18:33.127Z,4.10
2018-12-02T18:21:11.868Z,4.85
2018-12-02T18:23:52.488Z,4.33
2018-12-02T18:26:31.976Z,4.10
2018-12-02T18:29:11.270Z,4.75
2018-12-02T18:31:52.585Z,4.30
2018-12-02T18:34:31.654Z,5.17
2018-12-02T18:37:12.192Z,5.10
2018-12-02T18:39:49.715Z,4.60
2018-12-02T18:42:29.279Z,4.10
2018-12-02T18:45:09.345Z,4.58
2018-12-02T18:47:49.312Z,4.50
2018-12-02T18:50:29.699Z,4.20
2018-12-02T18:53:14.635Z,3.70
2018-12-02T18:55:54.634Z,4.22
2018-12-02T18:58:33.398Z,3.87
2018-12-02T19:01:12.940Z,3.77
2018-12-02T19:03:54.534Z,4.37
2018-12-02T19:06:33.874Z,4.03
2018-12-02T19:09:13.993Z,4.20
2018-12-02T19:11:54.633Z,4.22
2018-12-02T19:14:32.647Z,4.70
2018-12-02T19:17:12.138Z,4.05
2018-12-02T19:19:50.555Z,4.42
2018-12-02T19:22:31.997Z,5.10
2018-12-02T19:25:11.613Z,3.60
2018-12-02T19:27:52.428Z,4.22
2018-12-02T19:30:33.108Z,3.60
2018-12-02T19:33:11.311Z,3.98
2018-12-02T19:35:50.803Z,3.17
2018-12-02T19:38:31.796Z,3.95
2018-12-02T19:41:11.386Z,3.80
2018-12-02T19:43:50.981Z,3.75
2018-12-02T19:46:31.819Z,4.30
2018-12-02T19:49:10.713Z,4.35
2018-12-02T19:51:50.304Z,3.70
2018-12-02T19:54:30.618Z,3.02
2018-12-02T19:57:09.634Z,3.65
2018-12-02T19:59:50.980Z,3.15
2018-12-02T20:02:31.148Z,4.00
2018-12-02T20:05:09.912Z,3.10
2018-12-02T20:07:49.352Z,3.33
2018-12-02T20:10:31.244Z,3.42
2018-12-02T20:13:13.541Z,4.10
2018-12-02T20:15:56.150Z,3.10
2018-12-02T20:18:36.917Z,3.30
2018-12-02T20:21:16.306Z,3.27
2018-12-02T20:23:59.648Z,4.30
2018-12-02T20:26:38.440Z,3.92
2018-12-02T20:29:18.458Z,3.70
2018-12-02T20:31:57.616Z,2.60
2018-12-02T20:34:38.093Z,3.40
2018-12-02T20:37:17.012Z,2.80
2018-12-02T20:39:56.585Z,3.45
2018-12-02T20:42:34.632Z,3.35
2018-12-02T20:45:14.606Z,3.40
2018-12-02T20:47:54.867Z,2.75
2018-12-02T20:50:35.590Z,2.80
2018-12-02T20:53:16.111Z,3.62
2018-12-02T20:55:54.326Z,2.50
2018-12-02T20:58:34.164Z,2.80
2018-12-02T21:01:14.633Z,2.30
2018-12-02T21:03:53.369Z,3.08
2018-12-02T21:06:32.887Z,2.62
2018-12-02T21:09:11.705Z,3.45
2018-12-02T21:11:52.194Z,3.35
2018-12-02T21:14:31.062Z,2.90
2018-12-02T21:17:11.052Z,3.27
2018-12-02T21:19:49.497Z,2.80
2018-12-02T21:22:29.269Z,2.90
2018-12-02T21:25:09.301Z,3.40
2018-12-02T21:27:49.096Z,11.05
2018-12-02T21:30:28.233Z,4.10
2018-12-02T21:33:07.775Z,3.02
2018-12-02T21:35:47.618Z,3.55
2018-12-02T21:38:28.714Z,3.80
2018-12-02T21:41:08.426Z,3.27
2018-12-02T21:43:47.068Z,3.25
2018-12-02T21:46:26.237Z,2.60
2018-12-02T21:49:06.200Z,3.17
2018-12-02T21:51:47.168Z,2.90
2018-12-02T21:54:29.285Z,2.62
2018-12-02T21:57:08.752Z,3.02
2018-12-02T21:59:49.142Z,2.83
2018-12-02T22:02:29.209Z,3.35
2018-12-02T22:05:09.276Z,3.00
2018-12-02T22:07:47.539Z,3.92
2018-12-02T22:10:27.957Z,3.02
2018-12-02T22:13:06.997Z,3.02
2018-12-02T22:15:46.072Z,3.17
2018-12-02T22:18:24.580Z,2.85
2018-12-02T22:21:03.097Z,2.95
2018-12-02T22:23:42.590Z,3.20
2018-12-02T22:26:22.980Z,3.25
2018-12-02T22:29:02.998Z,2.77
2018-12-02T22:31:42.743Z,2.95
2018-12-02T22:34:21.903Z,2.80
2018-12-02T22:37:01.253Z,2.22
2018-12-02T22:39:41.287Z,3.05
2018-12-02T22:42:19.527Z,3.10
2018-12-02T22:44:58.921Z,3.42
2018-12-02T22:47:37.739Z,2.87
2018-12-02T22:50:18.879Z,3.15
2018-12-02T22:52:59.471Z,2.72
2018-12-02T22:55:40.366Z,3.00
2018-12-02T22:58:19.378Z,3.37
2018-12-02T23:01:02.478Z,3.25
2018-12-02T23:03:42.858Z,2.60
2018-12-02T23:06:24.226Z,2.72
2018-12-02T23:09:04.492Z,3.10
2018-12-02T23:11:44.633Z,3.30
2018-12-02T23:14:24.327Z,3.60
2018-12-02T23:17:04.636Z,2.65
2018-12-02T23:19:41.851Z,3.45
2018-12-02T23:22:21.400Z,3.00
2018-12-02T23:25:02.692Z,2.60
2018-12-02T23:27:41.934Z,3.92
2018-12-02T23:30:22.051Z,3.17
2018-12-02T23:33:01.190Z,3.10
2018-12-02T23:35:40.836Z,3.40
2018-12-02T23:38:19.848Z,3.08
2018-12-02T23:41:00.889Z,3.20
2018-12-02T23:43:39.707Z,3.25
2018-12-02T23:46:20.247Z,3.30
2018-12-02T23:48:59.066Z,3.15
2018-12-02T23:51:39.159Z,4.15
2018-12-02T23:54:19.501Z,3.10
2018-12-02T23:56:58.287Z,3.33
2018-12-02T23:59:36.197Z,3.30
